createdAt,value
2018-08-22T00:00:44.649Z,20.20
2018-08-22T00:03:13.253Z,20.30
2018-08-22T00:05:41.846Z,20.30
2018-08-22T00:08:10.447Z,20.10
2018-08-22T00:10:39.017Z,20.10
2018-08-22T00:13:07.609Z,20.20
2018-08-22T00:15:36.194Z,20.20
2018-08-22T00:18:04.943Z,20.20
2018-08-22T00:20:33.523Z,20.10
2018-08-22T00:23:02.296Z,20.10
2018-08-22T00:25:30.918Z,20.20
2018-08-22T00:27:59.513Z,20.20
2018-08-22T00:30:28.072Z,20.30
2018-08-22T00:32:56.705Z,20.30
2018-08-22T00:35:25.277Z,20.20
2018-08-22T00:37:53.885Z,20.20
2018-08-22T00:40:22.517Z,20.10
2018-08-22T00:42:51.134Z,20.10
2018-08-22T00:45:19.716Z,20.10
2018-08-22T00:47:48.317Z,20.10
2018-08-22T00:50:16.913Z,20.00
2018-08-22T00:52:46.161Z,20.00
2018-08-22T00:55:14.731Z,20.00
2018-08-22T00:57:43.347Z,20.00
2018-08-22T01:00:11.935Z,19.80
2018-08-22T01:02:40.579Z,19.90
2018-08-22T01:05:09.183Z,19.90
2018-08-22T01:07:37.784Z,19.80
2018-08-22T01:10:07.541Z,19.80
2018-08-22T01:12:36.175Z,19.80
2018-08-22T01:15:05.221Z,19.70
2018-08-22T01:17:33.930Z,19.80
2018-08-22T01:20:02.521Z,19.80
2018-08-22T01:22:31.097Z,19.80
2018-08-22T01:24:59.695Z,19.80
2018-08-22T01:27:28.257Z,19.80
2018-08-22T01:29:56.860Z,19.80
2018-08-22T01:32:30.120Z,19.80
2018-08-22T01:35:01.545Z,19.70
2018-08-22T01:37:30.165Z,19.60
2018-08-22T01:39:58.750Z,19.60
2018-08-22T01:42:27.303Z,19.60
2018-08-22T01:44:55.917Z,19.50
2018-08-22T01:47:24.511Z,19.50
2018-08-22T01:49:53.198Z,19.40
2018-08-22T01:52:22.030Z,19.50
2018-08-22T01:54:50.653Z,19.40
2018-08-22T01:57:19.225Z,19.30
2018-08-22T01:59:47.851Z,19.50
2018-08-22T02:02:16.424Z,19.50
2018-08-22T02:04:45.061Z,19.40
2018-08-22T02:07:13.758Z,19.40
2018-08-22T02:09:42.365Z,19.40
2018-08-22T02:12:10.955Z,19.30
2018-08-22T02:14:39.834Z,19.20
2018-08-22T02:17:08.417Z,19.30
2018-08-22T02:19:37.196Z,19.30
2018-08-22T02:22:06.131Z,19.20
2018-08-22T02:24:34.804Z,19.10
2018-08-22T02:27:03.369Z,19.10
2018-08-22T02:29:31.962Z,19.10
2018-08-22T02:32:00.568Z,19.00
2018-08-22T02:34:29.358Z,19.00
2018-08-22T02:36:57.921Z,19.00
2018-08-22T02:39:26.518Z,19.00
2018-08-22T02:41:55.089Z,18.90
2018-08-22T02:44:23.673Z,18.90
2018-08-22T02:46:52.402Z,18.80
2018-08-22T02:49:20.966Z,18.80
2018-08-22T02:51:49.772Z,18.80
2018-08-22T02:54:18.353Z,18.90
2018-08-22T02:56:47.137Z,18.90
2018-08-22T02:59:15.762Z,18.90
2018-08-22T03:01:44.374Z,18.80
2018-08-22T03:04:12.997Z,18.80
2018-08-22T03:06:41.623Z,18.70
2018-08-22T03:09:10.221Z,18.80
2018-08-22T03:11:39.061Z,18.80
2018-08-22T03:14:07.681Z,18.80
2018-08-22T03:16:36.299Z,18.80
2018-08-22T03:19:05.317Z,18.70
2018-08-22T03:21:34.074Z,18.70
2018-08-22T03:24:02.652Z,18.70
2018-08-22T03:26:31.253Z,18.70
2018-08-22T03:28:59.820Z,18.70
2018-08-22T03:31:28.581Z,18.70
2018-08-22T03:33:57.149Z,18.70
2018-08-22T03:36:26.077Z,18.70
2018-08-22T03:38:54.839Z,18.70
2018-08-22T03:41:23.433Z,18.60
2018-08-22T03:43:52.026Z,18.60
2018-08-22T03:46:20.647Z,18.60
2018-08-22T03:48:49.225Z,18.70
2018-08-22T03:51:17.826Z,18.70
2018-08-22T03:53:46.454Z,18.70
2018-08-22T03:56:15.117Z,18.70
2018-08-22T03:58:43.681Z,18.50
2018-08-22T04:01:12.284Z,18.50
2018-08-22T04:03:40.878Z,18.60
2018-08-22T04:06:09.477Z,18.60
2018-08-22T04:08:38.065Z,18.50
2018-08-22T04:11:06.870Z,18.50
2018-08-22T04:13:35.454Z,18.40
2018-08-22T04:16:04.401Z,18.40
2018-08-22T04:18:32.970Z,18.50
2018-08-22T04:21:02.713Z,18.50
2018-08-22T04:23:31.329Z,18.50
2018-08-22T04:25:59.919Z,18.50
2018-08-22T04:28:28.518Z,18.50
2018-08-22T04:30:57.255Z,18.40
2018-08-22T04:33:25.829Z,18.40
2018-08-22T04:35:54.481Z,18.40
2018-08-22T04:38:23.073Z,18.30
2018-08-22T04:40:51.644Z,18.30
2018-08-22T04:43:20.233Z,18.40
2018-08-22T04:45:48.793Z,18.40
2018-08-22T04:48:17.414Z,18.40
2018-08-22T04:50:45.983Z,18.40
2018-08-22T04:53:14.577Z,18.40
2018-08-22T04:55:43.153Z,18.40
2018-08-22T04:58:11.770Z,18.40
2018-08-22T05:00:40.361Z,18.40
2018-08-22T05:03:08.969Z,18.30
2018-08-22T05:05:37.542Z,18.40
2018-08-22T05:08:06.149Z,18.40
2018-08-22T05:10:34.706Z,18.40
2018-08-22T05:13:03.442Z,18.40
2018-08-22T05:15:32.013Z,18.30
2018-08-22T05:18:00.706Z,18.30
2018-08-22T05:20:29.282Z,18.30
2018-08-22T05:22:57.877Z,18.40
2018-08-22T05:25:26.453Z,18.40
2018-08-22T05:27:55.065Z,18.40
2018-08-22T05:30:23.630Z,18.50
2018-08-22T05:32:52.285Z,18.40
2018-08-22T05:35:20.866Z,18.50
2018-08-22T05:37:49.533Z,18.60
2018-08-22T05:40:18.105Z,18.60
2018-08-22T05:42:46.705Z,18.80
2018-08-22T05:45:15.285Z,19.20
2018-08-22T05:47:44.018Z,19.40
2018-08-22T05:50:12.650Z,19.70
2018-08-22T05:52:41.336Z,20.10
2018-08-22T05:55:09.945Z,20.40
2018-08-22T05:57:38.562Z,20.70
2018-08-22T06:00:07.665Z,21.20
2018-08-22T06:02:36.486Z,21.50
2018-08-22T06:05:05.541Z,21.90
2018-08-22T06:07:34.164Z,22.40
2018-08-22T06:10:03.146Z,23.00
2018-08-22T06:12:31.745Z,23.50
2018-08-22T06:15:01.198Z,23.80
2018-08-22T06:17:29.769Z,24.20
2018-08-22T06:19:58.389Z,24.40
2018-08-22T06:22:26.993Z,24.60
2018-08-22T06:24:55.585Z,25.10
2018-08-22T06:27:24.162Z,25.70
2018-08-22T06:29:52.761Z,26.00
2018-08-22T06:32:28.756Z,26.20
2018-08-22T06:35:02.191Z,26.50
2018-08-22T06:37:33.570Z,26.80
2018-08-22T06:40:03.893Z,27.10
2018-08-22T06:42:32.720Z,27.60
2018-08-22T06:45:02.180Z,28.20
2018-08-22T06:47:31.857Z,28.40
2018-08-22T06:50:00.677Z,28.90
2018-08-22T06:52:29.798Z,29.40
2018-08-22T06:54:58.542Z,29.80
2018-08-22T06:57:27.275Z,30.30
2018-08-22T06:59:55.929Z,30.90
2018-08-22T07:02:25.622Z,31.40
2018-08-22T07:04:54.313Z,31.80
2018-08-22T07:07:23.967Z,32.10
2018-08-22T07:09:52.763Z,32.30
2018-08-22T07:12:21.589Z,32.70
2018-08-22T07:14:50.826Z,33.00
2018-08-22T07:17:19.606Z,33.20
2018-08-22T07:19:48.386Z,33.70
2018-08-22T07:22:17.188Z,34.00
2018-08-22T07:24:46.040Z,34.20
2018-08-22T07:27:16.059Z,34.30
2018-08-22T07:29:45.205Z,34.40
2018-08-22T07:32:14.053Z,34.70
2018-08-22T07:34:42.694Z,35.10
2018-08-22T07:37:11.336Z,35.40
2018-08-22T07:39:40.097Z,35.70
2018-08-22T07:42:08.895Z,35.90
2018-08-22T07:44:37.601Z,36.10
2018-08-22T07:47:06.763Z,36.40
2018-08-22T07:49:35.459Z,36.70
2018-08-22T07:52:04.213Z,36.80
2018-08-22T07:54:38.225Z,37.10
2018-08-22T07:57:07.018Z,37.10
2018-08-22T07:59:35.740Z,37.40
2018-08-22T08:02:04.648Z,37.60
2018-08-22T08:04:33.423Z,37.80
2018-08-22T08:07:02.125Z,37.80
2018-08-22T08:09:30.688Z,38.00
2018-08-22T08:11:59.676Z,38.40
2018-08-22T08:14:28.459Z,38.70
2018-08-22T08:16:57.422Z,39.10
2018-08-22T08:19:26.164Z,39.00
2018-08-22T08:21:55.281Z,39.30
2018-08-22T08:24:24.195Z,39.70
2018-08-22T08:26:53.042Z,39.60
2018-08-22T08:29:21.929Z,39.90
2018-08-22T08:31:50.892Z,40.10
2018-08-22T08:34:19.775Z,40.40
2018-08-22T08:36:48.561Z,40.40
2018-08-22T08:39:17.462Z,40.70
2018-08-22T08:41:46.358Z,40.60
2018-08-22T08:44:15.180Z,40.90
2018-08-22T08:46:43.991Z,41.20
2018-08-22T08:49:12.774Z,41.00
2018-08-22T08:51:53.060Z,41.40
2018-08-22T08:54:22.624Z,41.50
2018-08-22T08:56:51.405Z,41.70
2018-08-22T08:59:20.130Z,41.90
2018-08-22T09:01:50.106Z,41.90
2018-08-22T09:04:19.544Z,41.80
2018-08-22T09:06:49.266Z,42.20
2018-08-22T09:09:17.943Z,42.30
2018-08-22T09:11:52.041Z,42.60
2018-08-22T09:14:20.694Z,42.60
2018-08-22T09:16:49.466Z,42.50
2018-08-22T09:19:18.073Z,42.80
2018-08-22T09:21:46.927Z,42.50
2018-08-22T09:24:15.965Z,42.30
2018-08-22T09:26:45.209Z,42.40
2018-08-22T09:29:14.213Z,42.60
2018-08-22T09:31:43.120Z,42.60
2018-08-22T09:34:11.750Z,42.70
2018-08-22T09:36:40.547Z,43.00
2018-08-22T09:39:11.645Z,43.30
2018-08-22T09:41:40.218Z,43.30
2018-08-22T09:44:09.058Z,43.60
2018-08-22T09:46:38.657Z,43.50
2018-08-22T09:49:07.342Z,43.40
2018-08-22T09:51:35.973Z,42.90
2018-08-22T09:54:04.716Z,43.00
2018-08-22T09:56:33.281Z,42.80
2018-08-22T09:59:02.087Z,43.10
2018-08-22T10:01:36.126Z,43.10
2018-08-22T10:04:04.980Z,42.50
2018-08-22T10:06:37.563Z,43.10
2018-08-22T10:09:11.517Z,43.30
2018-08-22T10:11:40.349Z,43.50
2018-08-22T10:14:09.169Z,44.30
2018-08-22T10:16:37.794Z,43.90
2018-08-22T10:19:06.572Z,44.00
2018-08-22T10:21:35.328Z,44.00
2018-08-22T10:24:04.096Z,44.10
2018-08-22T10:26:32.887Z,44.00
2018-08-22T10:29:02.043Z,44.00
2018-08-22T10:31:30.826Z,43.90
2018-08-22T10:33:59.635Z,43.90
2018-08-22T10:36:28.266Z,43.80
2018-08-22T10:38:57.076Z,44.10
2018-08-22T10:41:25.749Z,44.20
2018-08-22T10:43:55.103Z,43.40
2018-08-22T10:46:23.894Z,42.50
2018-08-22T10:48:52.619Z,42.20
2018-08-22T10:51:21.673Z,42.00
2018-08-22T10:53:50.435Z,41.70
2018-08-22T10:56:19.341Z,40.60
2018-08-22T10:58:48.403Z,40.30
2018-08-22T11:01:17.539Z,40.30
2018-08-22T11:03:46.984Z,40.10
2018-08-22T11:06:16.266Z,39.80
2018-08-22T11:08:45.268Z,39.30
2018-08-22T11:11:14.190Z,39.20
2018-08-22T11:13:43.621Z,38.90
2018-08-22T11:16:14.046Z,38.70
2018-08-22T11:18:43.114Z,38.50
2018-08-22T11:21:22.925Z,38.30
2018-08-22T11:24:02.638Z,38.20
2018-08-22T11:26:42.474Z,37.90
2018-08-22T11:29:22.324Z,37.70
2018-08-22T11:32:02.146Z,37.40
2018-08-22T11:34:41.953Z,36.80
2018-08-22T11:37:13.010Z,36.70
2018-08-22T11:39:44.094Z,36.70
2018-08-22T11:42:12.882Z,36.70
2018-08-22T11:44:41.930Z,36.50
2018-08-22T11:47:10.795Z,36.30
2018-08-22T11:49:40.401Z,36.00
2018-08-22T11:52:09.317Z,36.10
2018-08-22T11:54:38.434Z,36.00
2018-08-22T11:57:07.491Z,36.00
2018-08-22T11:59:36.388Z,35.90
2018-08-22T12:02:05.321Z,36.00
2018-08-22T12:04:34.240Z,35.80
2018-08-22T12:07:03.050Z,35.70
2018-08-22T12:09:31.712Z,35.60
2018-08-22T12:12:00.395Z,35.50
2018-08-22T12:14:28.992Z,35.40
2018-08-22T12:16:57.709Z,35.40
2018-08-22T12:19:26.294Z,35.20
2018-08-22T12:21:55.664Z,35.20
2018-08-22T12:24:24.452Z,34.90
2018-08-22T12:26:53.071Z,34.90
2018-08-22T12:29:21.661Z,34.80
2018-08-22T12:31:50.430Z,34.70
2018-08-22T12:34:19.326Z,34.70
2018-08-22T12:36:47.926Z,34.70
2018-08-22T12:39:16.501Z,34.60
2018-08-22T12:41:45.216Z,34.70
2018-08-22T12:44:13.903Z,34.30
2018-08-22T12:46:42.709Z,34.30
2018-08-22T12:49:11.476Z,34.50
2018-08-22T12:51:40.204Z,34.50
2018-08-22T12:54:09.201Z,34.60
2018-08-22T12:56:38.089Z,34.60
2018-08-22T12:59:06.970Z,34.30
2018-08-22T13:01:35.971Z,34.30
2018-08-22T13:04:04.835Z,34.30
2018-08-22T13:06:33.581Z,34.30
2018-08-22T13:09:02.494Z,34.40
2018-08-22T13:11:31.280Z,34.30
2018-08-22T13:14:00.069Z,34.20
2018-08-22T13:16:28.876Z,34.30
2018-08-22T13:18:57.461Z,34.30
2018-08-22T13:21:26.672Z,34.30
2018-08-22T13:23:55.621Z,34.20
2018-08-22T13:26:24.494Z,34.10
2018-08-22T13:28:53.356Z,34.20
2018-08-22T13:31:22.658Z,34.10
2018-08-22T13:33:51.315Z,34.10
2018-08-22T13:36:20.277Z,34.10
2018-08-22T13:38:48.828Z,34.10
2018-08-22T13:41:17.903Z,34.10
2018-08-22T13:43:46.870Z,34.00
2018-08-22T13:46:15.799Z,34.00
2018-08-22T13:48:44.591Z,33.90
2018-08-22T13:51:13.548Z,34.00
2018-08-22T13:53:42.329Z,33.90
2018-08-22T13:56:11.236Z,34.00
2018-08-22T13:58:39.910Z,34.00
2018-08-22T14:01:08.703Z,34.00
2018-08-22T14:03:37.357Z,34.00
2018-08-22T14:06:06.200Z,34.10
2018-08-22T14:08:35.427Z,34.10
2018-08-22T14:11:04.077Z,34.10
2018-08-22T14:13:33.107Z,34.10
2018-08-22T14:16:02.039Z,34.10
2018-08-22T14:18:30.964Z,34.10
2018-08-22T14:20:59.667Z,34.10
2018-08-22T14:23:28.502Z,34.10
2018-08-22T14:25:57.379Z,34.10
2018-08-22T14:28:25.992Z,34.20
2018-08-22T14:30:54.590Z,34.20
2018-08-22T14:33:23.354Z,34.30
2018-08-22T14:35:52.050Z,34.30
2018-08-22T14:38:20.739Z,34.30
2018-08-22T14:40:49.373Z,34.10
2018-08-22T14:43:18.372Z,33.80
2018-08-22T14:45:47.108Z,33.70
2018-08-22T14:48:15.846Z,34.00
2018-08-22T14:50:44.630Z,34.10
2018-08-22T14:53:13.234Z,34.20
2018-08-22T14:55:41.990Z,34.30
2018-08-22T14:58:10.591Z,34.20
2018-08-22T15:00:39.250Z,34.30
2018-08-22T15:03:08.214Z,34.30
2018-08-22T15:05:37.058Z,34.30
2018-08-22T15:08:06.008Z,34.40
2018-08-22T15:10:34.935Z,34.30
2018-08-22T15:13:03.969Z,34.30
2018-08-22T15:15:32.804Z,34.30
2018-08-22T15:18:01.430Z,34.40
2018-08-22T15:20:30.029Z,34.40
2018-08-22T15:22:58.662Z,34.40
2018-08-22T15:25:27.374Z,34.50
2018-08-22T15:27:56.241Z,34.40
2018-08-22T15:30:25.332Z,34.40
2018-08-22T15:32:54.072Z,34.40
2018-08-22T15:35:23.066Z,34.30
2018-08-22T15:37:52.082Z,34.40
2018-08-22T15:40:20.776Z,34.40
2018-08-22T15:42:49.574Z,34.50
2018-08-22T15:45:18.446Z,34.50
2018-08-22T15:47:47.047Z,34.30
2018-08-22T15:50:15.944Z,34.30
2018-08-22T15:52:44.999Z,34.30
2018-08-22T15:55:16.610Z,34.30
2018-08-22T15:58:07.149Z,34.30
2018-08-22T16:00:49.333Z,34.20
2018-08-22T16:03:18.013Z,34.20
2018-08-22T16:05:47.453Z,34.10
2018-08-22T16:08:18.081Z,34.10
2018-08-22T16:10:46.825Z,34.00
2018-08-22T16:13:20.880Z,34.00
2018-08-22T16:15:52.080Z,34.00
2018-08-22T16:18:21.029Z,33.90
2018-08-22T16:20:57.046Z,33.80
2018-08-22T16:23:29.746Z,33.80
2018-08-22T16:25:59.698Z,33.70
2018-08-22T16:28:33.900Z,33.60
2018-08-22T16:31:02.546Z,33.60
2018-08-22T16:33:31.141Z,33.60
2018-08-22T16:35:59.804Z,33.60
2018-08-22T16:38:28.390Z,33.60
2018-08-22T16:40:57.010Z,33.50
2018-08-22T16:43:39.061Z,33.50
2018-08-22T16:46:11.040Z,33.50
2018-08-22T16:48:40.469Z,33.40
2018-08-22T16:51:09.102Z,33.40
2018-08-22T16:53:37.699Z,33.30
2018-08-22T16:56:06.347Z,33.30
2018-08-22T16:58:34.970Z,33.30
2018-08-22T17:01:04.209Z,33.20
2018-08-22T17:03:33.325Z,33.20
2018-08-22T17:06:06.113Z,33.20
2018-08-22T17:08:34.725Z,33.10
2018-08-22T17:11:05.570Z,33.00
2018-08-22T17:13:48.821Z,33.00
2018-08-22T17:16:17.450Z,32.90
2018-08-22T17:18:46.103Z,32.90
2018-08-22T17:21:14.733Z,32.80
2018-08-22T17:23:43.953Z,32.60
2018-08-22T17:26:14.824Z,32.60
2018-08-22T17:28:46.245Z,32.60
2018-08-22T17:31:15.497Z,32.50
2018-08-22T17:33:47.130Z,32.40
2018-08-22T17:36:15.870Z,32.30
2018-08-22T17:38:45.657Z,32.30
2018-08-22T17:41:14.691Z,32.20
2018-08-22T17:43:55.134Z,32.10
2018-08-22T17:46:25.610Z,31.90
2018-08-22T17:48:54.206Z,31.60
2018-08-22T17:51:22.836Z,31.30
2018-08-22T17:53:51.505Z,31.20
2018-08-22T17:56:22.706Z,30.80
2018-08-22T17:58:52.408Z,30.70
2018-08-22T18:01:21.451Z,30.30
2018-08-22T18:03:50.072Z,30.10
2018-08-22T18:06:18.749Z,29.80
2018-08-22T18:08:47.311Z,29.50
2018-08-22T18:11:15.902Z,29.40
2018-08-22T18:13:44.508Z,29.30
2018-08-22T18:16:13.104Z,29.10
2018-08-22T18:18:41.798Z,29.10
2018-08-22T18:21:10.389Z,28.80
2018-08-22T18:23:49.418Z,28.70
2018-08-22T18:26:18.022Z,28.60
2018-08-22T18:28:46.624Z,28.40
2018-08-22T18:31:15.281Z,28.30
2018-08-22T18:33:56.483Z,28.20
2018-08-22T18:36:26.324Z,28.20
2018-08-22T18:39:08.410Z,28.10
2018-08-22T18:41:37.850Z,27.90
2018-08-22T18:44:06.482Z,27.80
2018-08-22T18:46:35.101Z,27.50
2018-08-22T18:49:04.617Z,27.50
2018-08-22T18:51:33.537Z,27.30
2018-08-22T18:54:02.833Z,27.20
2018-08-22T18:56:31.487Z,27.10
2018-08-22T18:59:10.114Z,26.90
2018-08-22T19:01:38.725Z,26.60
2018-08-22T19:04:07.330Z,26.60
2018-08-22T19:06:35.954Z,26.60
2018-08-22T19:09:05.962Z,26.30
2018-08-22T19:11:35.593Z,26.40
2018-08-22T19:14:05.047Z,26.30
2018-08-22T19:16:34.076Z,26.40
2018-08-22T19:19:04.957Z,26.20
2018-08-22T19:21:34.249Z,26.00
2018-08-22T19:24:05.860Z,25.90
2018-08-22T19:26:37.616Z,25.80
2018-08-22T19:29:10.225Z,25.70
2018-08-22T19:31:44.092Z,25.60
2018-08-22T19:34:12.681Z,25.50
2018-08-22T19:36:41.429Z,25.50
2018-08-22T19:39:09.991Z,25.50
2018-08-22T19:41:38.670Z,25.40
2018-08-22T19:44:07.289Z,25.40
2018-08-22T19:46:36.639Z,25.30
2018-08-22T19:49:05.589Z,25.10
2018-08-22T19:51:34.128Z,25.10
2018-08-22T19:54:06.574Z,25.00
2018-08-22T19:56:35.706Z,25.00
2018-08-22T19:59:05.150Z,24.90
2018-08-22T20:01:35.123Z,24.80
2018-08-22T20:04:03.779Z,24.70
2018-08-22T20:06:32.390Z,24.80
2018-08-22T20:09:01.353Z,24.70
2018-08-22T20:11:33.729Z,24.60
2018-08-22T20:14:05.564Z,24.40
2018-08-22T20:16:34.178Z,24.40
2018-08-22T20:19:04.470Z,24.40
2018-08-22T20:21:34.205Z,24.30
2018-08-22T20:24:04.020Z,24.30
2018-08-22T20:26:33.060Z,24.20
2018-08-22T20:29:02.563Z,24.10
2018-08-22T20:31:31.578Z,24.00
2018-08-22T20:34:14.198Z,24.00
2018-08-22T20:36:47.446Z,23.90
2018-08-22T20:39:16.174Z,23.90
2018-08-22T20:41:45.185Z,23.90
2018-08-22T20:44:18.409Z,23.60
2018-08-22T20:46:47.946Z,23.60
2018-08-22T20:49:18.264Z,23.60
2018-08-22T20:51:46.998Z,23.60
2018-08-22T20:54:20.521Z,23.50
2018-08-22T20:56:55.022Z,23.50
2018-08-22T20:59:23.622Z,23.40
2018-08-22T21:02:08.696Z,23.40
2018-08-22T21:04:37.284Z,23.40
2018-08-22T21:07:06.223Z,23.30
2018-08-22T21:09:34.823Z,23.30
2018-08-22T21:12:04.598Z,23.30
2018-08-22T21:14:33.224Z,23.30
2018-08-22T21:17:02.750Z,23.20
2018-08-22T21:19:31.350Z,23.20
2018-08-22T21:21:59.920Z,23.00
2018-08-22T21:24:28.562Z,22.90
2018-08-22T21:26:57.129Z,22.90
2018-08-22T21:29:25.737Z,22.80
2018-08-22T21:31:54.361Z,22.80
2018-08-22T21:34:24.230Z,22.90
2018-08-22T21:36:52.812Z,22.90
2018-08-22T21:39:26.533Z,22.90
2018-08-22T21:41:55.312Z,22.90
2018-08-22T21:44:24.197Z,22.80
2018-08-22T21:46:59.957Z,22.60
2018-08-22T21:49:28.918Z,22.60
2018-08-22T21:51:58.000Z,22.40
2018-08-22T21:54:26.924Z,22.30
2018-08-22T21:56:55.706Z,22.40
2018-08-22T21:59:24.392Z,22.40
2018-08-22T22:01:58.304Z,22.30
2018-08-22T22:04:42.135Z,22.30
2018-08-22T22:07:11.941Z,22.30
2018-08-22T22:09:40.849Z,22.20
2018-08-22T22:12:14.692Z,22.20
2018-08-22T22:14:45.305Z,22.10
2018-08-22T22:17:13.889Z,22.10
2018-08-22T22:19:42.534Z,22.10
2018-08-22T22:22:11.186Z,22.10
2018-08-22T22:24:45.143Z,22.00
2018-08-22T22:27:13.882Z,22.00
2018-08-22T22:29:42.507Z,22.10
2018-08-22T22:32:11.104Z,22.00
2018-08-22T22:34:39.873Z,22.00
2018-08-22T22:37:09.428Z,22.00
2018-08-22T22:39:42.693Z,22.00
2018-08-22T22:42:22.721Z,22.00
2018-08-22T22:44:52.524Z,21.90
2018-08-22T22:47:26.537Z,21.80
2018-08-22T22:49:56.032Z,21.80
2018-08-22T22:52:27.854Z,21.70
2018-08-22T22:54:58.440Z,21.70
2018-08-22T22:57:29.488Z,21.70
2018-08-22T23:00:00.125Z,21.70
2018-08-22T23:02:29.138Z,21.50
2018-08-22T23:04:58.289Z,21.50
2018-08-22T23:07:37.424Z,21.50
2018-08-22T23:10:07.497Z,21.50
2018-08-22T23:12:39.013Z,21.40
2018-08-22T23:15:15.482Z,21.40
2018-08-22T23:17:44.609Z,21.40
2018-08-22T23:20:24.995Z,21.50
2018-08-22T23:22:53.689Z,21.50
2018-08-22T23:25:22.385Z,21.50
2018-08-22T23:27:51.015Z,21.30
2018-08-22T23:30:21.217Z,21.30
2018-08-22T23:32:49.831Z,21.30
2018-08-22T23:35:23.040Z,21.30
2018-08-22T23:38:11.770Z,21.30
2018-08-22T23:40:40.373Z,21.20
2018-08-22T23:43:08.970Z,21.20
2018-08-22T23:45:37.606Z,21.10
2018-08-22T23:48:06.694Z,21.10
2018-08-22T23:50:41.094Z,21.10
2018-08-22T23:53:09.700Z,21.00
2018-08-22T23:55:38.293Z,21.00
2018-08-22T23:58:06.873Z,21.10
